Time;durP1;ratioP1;P1;durP2;ratioP2;P2;SDS_P1;SDS_P2;PMS_P1;PMS_P2;Temp;Humidity;BMP_temperature;BMP_pressure;BME280_temperature;BME280_humidity;BME280_pressure;Samples;Min_cycle;Max_cycle;Signal;HPM_P1;HPM_P2
2020/12/20 00:01:38;;;;;;;60.47;32.38;;;;;;;7.45;69.07;94801.13;4981501;28;20046;-80
2020/12/20 00:04:03;;;;;;;58.28;31.77;;;;;;;7.42;68.45;94792.94;4980721;28;20038;-80
2020/12/20 00:06:36;;;;;;;62.90;34.55;;;;;;;7.42;68.42;94798.19;4981446;28;20494;-81
2020/12/20 00:09:08;;;;;;;59.47;31.92;;;;;;;7.47;68.37;94808.78;4978827;28;20125;-80
2020/12/20 00:11:38;;;;;;;66.57;33.70;;;;;;;7.25;68.36;94772.75;4979992;28;20050;-81
2020/12/20 00:14:26;;;;;;;66.70;33.15;;;;;;;7.48;68.66;94807.75;4999097;28;20318;-80
2020/12/20 00:16:49;;;;;;;101.60;46.38;;;;;;;7.44;68.66;94802.16;4980654;28;20050;-81
2020/12/20 00:19:14;;;;;;;76.90;39.15;;;;;;;7.38;69.09;94798.66;4980230;28;20100;-81
2020/12/20 00:21:40;;;;;;;70.68;38.63;;;;;;;7.35;69.01;94804.44;4981162;28;20038;-80
2020/12/20 00:24:08;;;;;;;68.00;36.80;;;;;;;7.40;68.87;94809.75;4981172;28;20096;-80
2020/12/20 00:26:34;;;;;;;71.38;37.25;;;;;;;7.24;69.21;94796.63;4981022;28;20045;-81
2020/12/20 00:28:59;;;;;;;74.22;39.67;;;;;;;7.36;69.45;94821.81;4986523;28;20480;-81
2020/12/20 00:31:25;;;;;;;73.85;37.20;;;;;;;7.33;69.23;94806.50;4983128;28;20035;-81
2020/12/20 00:33:50;;;;;;;101.55;44.38;;;;;;;7.32;69.69;94809.38;4981080;28;20039;-80
2020/12/20 00:36:16;;;;;;;95.47;46.83;;;;;;;7.32;69.96;94818.06;4980728;28;20049;-80
2020/12/20 00:38:41;;;;;;;86.43;41.38;;;;;;;7.33;70.23;94817.00;4991896;28;20054;-80
2020/12/20 00:41:09;;;;;;;72.78;37.83;;;;;;;7.37;70.03;94807.63;4965247;28;20029;-81
2020/12/20 00:43:35;;;;;;;88.70;40.53;;;;;;;7.34;69.99;94808.09;4994805;28;20073;-80
2020/12/20 00:46:01;;;;;;;76.88;37.58;;;;;;;7.42;70.03;94822.66;4981920;28;20046;-81
2020/12/20 00:48:26;;;;;;;78.82;38.97;;;;;;;7.44;69.83;94812.69;4981650;28;20065;-81
2020/12/20 00:50:52;;;;;;;79.45;37.97;;;;;;;7.35;70.01;94799.16;4981224;28;20074;-80
2020/12/20 00:53:17;;;;;;;75.63;36.70;;;;;;;7.42;69.87;94813.97;4979322;28;20121;-80
2020/12/20 00:55:43;;;;;;;69.97;34.60;;;;;;;7.38;70.01;94809.19;4983100;28;20463;-80
2020/12/20 00:58:08;;;;;;;72.15;36.10;;;;;;;7.46;69.70;94815.09;4982291;28;20046;-81
2020/12/20 01:00:34;;;;;;;68.35;36.60;;;;;;;7.27;69.56;94786.47;4986401;28;20058;-81
2020/12/20 01:02:59;;;;;;;71.03;38.17;;;;;;;7.31;68.97;94786.75;4983404;28;20046;-81
2020/12/20 01:05:25;;;;;;;73.32;37.33;;;;;;;7.41;69.35;94797.41;4985899;28;20037;-81
2020/12/20 01:07:50;;;;;;;120.13;56.13;;;;;;;7.42;69.41;94798.19;4986379;28;20383;-81
2020/12/20 01:10:16;;;;;;;89.03;44.40;;;;;;;7.40;69.12;94801.88;4983107;28;20694;-81
2020/12/20 01:12:41;;;;;;;66.53;37.20;;;;;;;7.36;69.15;94792.09;4984491;28;20050;-81
2020/12/20 01:15:06;;;;;;;71.13;38.17;;;;;;;7.31;68.98;94792.00;4983428;28;20054;-81
2020/12/20 01:17:32;;;;;;;67.72;34.58;;;;;;;7.24;69.27;94786.94;4984869;28;20089;-80
2020/12/20 01:19:57;;;;;;;72.35;38.65;;;;;;;7.19;69.56;94781.59;4986803;28;20046;-80
2020/12/20 01:22:23;;;;;;;73.07;40.70;;;;;;;7.24;69.51;94786.94;4983416;28;20134;-80
2020/12/20 01:24:48;;;;;;;73.15;37.42;;;;;;;7.28;69.08;94782.00;4984965;28;20491;-81
2020/12/20 01:27:14;;;;;;;66.13;36.35;;;;;;;7.23;69.56;94795.84;4983711;28;20050;-80
2020/12/20 01:29:39;;;;;;;62.97;34.05;;;;;;;7.19;69.64;94784.22;4984177;28;20066;-81
2020/12/20 01:32:05;;;;;;;68.47;33.90;;;;;;;7.16;69.55;94779.47;4986604;28;20487;-81
2020/12/20 01:34:30;;;;;;;61.20;33.53;;;;;;;7.19;69.71;94789.50;4982871;28;20092;-80
2020/12/20 01:36:56;;;;;;;61.42;34.00;;;;;;;7.27;69.38;94796.97;4984373;28;20046;-81
2020/12/20 01:39:21;;;;;;;59.40;33.90;;;;;;;7.21;69.69;94784.78;4983808;28;20192;-81
2020/12/20 01:41:47;;;;;;;82.97;36.80;;;;;;;7.27;69.47;94786.47;4983180;28;20050;-80
2020/12/20 01:44:12;;;;;;;64.72;35.65;;;;;;;7.24;69.67;94781.66;4983466;28;20530;-81
2020/12/20 01:46:42;;;;;;;66.43;36.40;;;;;;;7.31;69.40;94784.13;4984417;28;20030;-81
2020/12/20 01:49:10;;;;;;;66.28;36.08;;;;;;;7.26;69.51;94782.22;4983665;28;20185;-80
2020/12/20 01:51:35;;;;;;;69.13;36.08;;;;;;;7.26;69.23;94782.22;4984644;28;20061;-81
2020/12/20 01:54:01;;;;;;;63.63;35.05;;;;;;;7.33;69.08;94790.72;4982041;28;20479;-80
2020/12/20 01:56:27;;;;;;;72.25;36.88;;;;;;;7.31;68.96;94787.56;4985055;28;20026;-80
2020/12/20 01:58:54;;;;;;;70.90;39.90;;;;;;;7.37;69.02;94785.78;4988593;28;20089;-81
2020/12/20 02:01:19;;;;;;;77.30;39.33;;;;;;;7.32;69.13;94783.91;4982986;28;20509;-81
2020/12/20 02:03:45;;;;;;;104.72;61.83;;;;;;;7.32;68.87;94783.91;4983037;28;20133;-80
2020/12/20 02:06:15;;;;;;;82.57;47.95;;;;;;;7.33;69.09;94790.72;4983962;28;20049;-80
2020/12/20 02:08:41;;;;;;;76.18;39.58;;;;;;;7.22;69.04;94769.81;4981191;28;20043;-81
2020/12/20 02:11:18;;;;;;;72.25;38.17;;;;;;;7.29;69.29;94779.09;4987260;28;20059;-81
2020/12/20 02:13:45;;;;;;;70.38;36.88;;;;;;;7.26;69.49;94778.81;4982152;28;20057;-81
2020/12/20 02:16:15;;;;;;;70.47;35.38;;;;;;;7.30;69.70;94790.41;4987661;28;20048;-80
2020/12/20 02:18:41;;;;;;;69.47;33.08;;;;;;;7.23;69.57;94780.06;4977194;28;20046;-80
2020/12/20 02:21:27;;;;;;;73.32;37.42;;;;;;;7.29;69.53;94788.81;4988363;28;20462;-80
2020/12/20 02:23:52;;;;;;;74.55;35.58;;;;;;;7.24;69.27;94773.78;4981385;28;20707;-79
2020/12/20 02:26:21;;;;;;;72.97;38.88;;;;;;;7.27;69.21;94781.19;4966422;28;20038;-80
2020/12/20 02:28:54;;;;;;;83.10;40.10;;;;;;;7.25;69.20;94775.38;4984604;28;20498;-80
2020/12/20 02:31:21;;;;;;;74.55;37.20;;;;;;;7.21;69.60;94790.06;4982412;28;20388;-79
2020/12/20 02:33:47;;;;;;;77.45;36.13;;;;;;;7.20;69.68;94790.28;4982908;28;20046;-79
2020/12/20 02:36:13;;;;;;;83.75;42.28;;;;;;;7.10;69.92;94774.38;4983368;28;20042;-80
2020/12/20 02:38:38;;;;;;;84.72;41.17;;;;;;;7.21;69.83;94781.38;4978118;28;20043;-80
2020/12/20 02:41:04;;;;;;;78.95;36.33;;;;;;;7.13;69.65;94768.66;4966457;28;20034;-80
2020/12/20 02:43:29;;;;;;;69.53;36.20;;;;;;;7.11;69.79;94760.19;4980143;28;20038;-80
2020/12/20 02:45:55;;;;;;;69.05;33.80;;;;;;;7.18;69.55;94776.59;4981515;28;20047;-80
2020/12/20 02:48:21;;;;;;;66.75;31.40;;;;;;;7.22;69.25;94783.75;4974385;28;20047;-80
2020/12/20 02:50:47;;;;;;;84.55;34.80;;;;;;;7.24;69.26;94786.13;4968175;28;20372;-80
2020/12/20 02:53:12;;;;;;;83.28;34.05;;;;;;;7.20;69.45;94774.50;4982406;28;20041;-80
2020/12/20 02:55:38;;;;;;;90.07;36.72;;;;;;;7.12;70.17;94773.09;4985044;28;20018;-79
2020/12/20 02:58:03;;;;;;;77.30;35.38;;;;;;;7.19;70.26;94775.53;4982905;28;20042;-80
2020/12/20 03:00:29;;;;;;;94.68;40.67;;;;;;;7.15;70.06;94777.88;4982860;28;20577;-79
2020/12/20 03:02:54;;;;;;;85.70;37.85;;;;;;;7.16;70.53;94779.47;4982317;28;20034;-79
2020/12/20 03:05:20;;;;;;;81.63;37.60;;;;;;;7.18;70.19;94781.88;4984073;28;20065;-79
2020/12/20 03:07:46;;;;;;;81.70;37.67;;;;;;;7.14;70.41;94776.28;4984659;28;20419;-79
2020/12/20 03:10:13;;;;;;;67.78;35.60;;;;;;;7.16;70.64;94779.47;4981182;28;20042;-79
2020/12/20 03:12:39;;;;;;;67.45;33.17;;;;;;;7.12;70.41;94775.75;4982997;28;20335;-80
2020/12/20 03:15:05;;;;;;;74.38;36.95;;;;;;;7.11;69.86;94766.25;4974690;28;20511;-79
2020/12/20 03:17:30;;;;;;;69.70;35.42;;;;;;;7.14;69.70;94773.66;4962617;28;20118;-80
2020/12/20 03:19:56;;;;;;;74.95;33.35;;;;;;;7.14;69.70;94767.59;4983288;28;20483;-79
2020/12/20 03:22:22;;;;;;;76.70;36.55;;;;;;;7.20;69.40;94772.69;4980837;28;20050;-80
2020/12/20 03:24:47;;;;;;;70.00;36.95;;;;;;;7.18;69.17;94761.63;4982634;28;20495;-80
2020/12/20 03:27:13;;;;;;;75.30;35.33;;;;;;;7.19;69.46;94762.41;4981673;28;20041;-80
2020/12/20 03:29:38;;;;;;;80.03;37.03;;;;;;;7.19;69.27;94770.28;4980871;28;20446;-79
2020/12/20 03:32:04;;;;;;;74.90;35.75;;;;;;;7.19;69.26;94772.91;4999358;28;20121;-79
2020/12/20 03:34:30;;;;;;;72.25;35.47;;;;;;;7.22;69.39;94772.44;4981015;28;20073;-80
2020/12/20 03:36:55;;;;;;;73.13;35.75;;;;;;;7.20;69.51;94775.31;4984615;28;20042;-79
2020/12/20 03:39:21;;;;;;;79.22;36.88;;;;;;;7.23;69.44;94779.31;4984588;28;20042;-80
2020/12/20 03:41:47;;;;;;;75.45;36.03;;;;;;;7.17;69.34;94773.19;4982801;28;20043;-80
2020/12/20 03:44:12;;;;;;;75.75;35.08;;;;;;;7.15;69.77;94767.34;4984079;28;20410;-80
2020/12/20 03:46:38;;;;;;;80.40;37.20;;;;;;;7.15;69.88;94772.63;4985247;28;20030;-80
2020/12/20 03:49:04;;;;;;;73.75;34.63;;;;;;;7.19;69.70;94771.09;4982634;28;20078;-80
2020/12/20 03:51:30;;;;;;;78.18;34.70;;;;;;;7.27;69.33;94777.78;4971496;28;20089;-79
2020/12/20 03:53:55;;;;;;;79.65;37.08;;;;;;;7.27;69.68;94770.69;4979708;28;20437;-79
2020/12/20 03:56:21;;;;;;;83.72;37.50;;;;;;;7.31;69.30;94766.53;4982773;28;20026;-80
2020/12/20 03:58:47;;;;;;;78.57;37.22;;;;;;;7.35;69.10;94770.25;4983238;28;20042;-79
2020/12/20 04:01:12;;;;;;;90.40;38.00;;;;;;;7.34;69.53;94765.22;4982027;28;20581;-79
2020/12/20 04:03:38;;;;;;;81.38;36.13;;;;;;;7.29;70.02;94768.59;4982551;28;20066;-80
2020/12/20 04:06:03;;;;;;;84.30;37.63;;;;;;;7.28;70.03;94767.00;4979495;28;20141;-79
2020/12/20 04:08:29;;;;;;;81.25;38.42;;;;;;;7.29;69.92;94765.16;4981868;28;20018;-79
2020/12/20 04:10:54;;;;;;;122.97;39.20;;;;;;;7.39;69.80;94779.22;4982455;28;20567;-80
2020/12/20 04:13:19;;;;;;;92.65;39.75;;;;;;;7.32;69.87;94783.09;4973662;28;20495;-79
2020/12/20 04:15:45;;;;;;;105.30;41.20;;;;;;;7.30;70.17;94774.63;4976969;28;20086;-80
2020/12/20 04:18:10;;;;;;;84.10;40.30;;;;;;;7.35;69.97;94786.03;4970664;28;20041;-80
2020/12/20 04:20:36;;;;;;;93.97;39.25;;;;;;;7.27;70.12;94765.41;4980950;28;20047;-79
2020/12/20 04:23:01;;;;;;;95.43;41.63;;;;;;;7.34;70.05;94776.53;4998751;28;20471;-79
2020/12/20 04:25:27;;;;;;;90.40;40.38;;;;;;;7.37;70.30;94778.69;4983482;28;20058;-79
2020/12/20 04:27:52;;;;;;;133.80;53.33;;;;;;;7.32;70.76;94780.47;4983548;28;20042;-80
2020/12/20 04:30:18;;;;;;;100.20;40.30;;;;;;;7.33;70.57;94782.84;4981971;28;20139;-80
2020/12/20 04:32:43;;;;;;;87.65;36.30;;;;;;;7.31;70.54;94787.56;4983161;28;20038;-80
2020/12/20 04:35:09;;;;;;;79.85;35.40;;;;;;;7.35;70.33;94779.97;5004155;28;20019;-79
2020/12/20 04:37:36;;;;;;;92.63;39.15;;;;;;;7.43;70.14;94787.41;4985376;28;20050;-79
2020/12/20 04:40:06;;;;;;;91.28;38.08;;;;;;;7.43;70.04;94784.03;4986214;28;20495;-79
2020/12/20 04:42:31;;;;;;;79.95;34.20;;;;;;;7.47;69.80;94774.59;4985946;28;20623;-80
2020/12/20 04:44:57;;;;;;;85.32;33.90;;;;;;;7.52;69.79;94778.09;4985011;28;20046;-79
2020/12/20 04:47:24;;;;;;;84.32;36.17;;;;;;;7.54;69.51;94775.19;4986203;28;20019;-80
2020/12/20 04:49:52;;;;;;;140.98;57.33;;;;;;;7.50;69.63;94776.72;4979633;28;20022;-80
2020/12/20 04:52:21;;;;;;;148.15;62.22;;;;;;;7.45;70.32;94781.91;4984171;28;20046;-80
2020/12/20 04:54:46;;;;;;;87.90;40.00;;;;;;;7.44;70.37;94780.31;4986852;28;20492;-80
2020/12/20 04:57:16;;;;;;;83.88;37.65;;;;;;;7.33;70.21;94763.66;4985807;28;20050;-80
2020/12/20 04:59:42;;;;;;;82.20;37.85;;;;;;;7.46;69.98;94779.06;4984783;28;20081;-80
2020/12/20 05:02:09;;;;;;;102.95;42.00;;;;;;;7.46;70.05;94783.53;4987415;28;20062;-79
2020/12/20 05:04:36;;;;;;;85.18;37.63;;;;;;;7.44;70.30;94780.31;4964674;28;20043;-79
2020/12/20 05:07:03;;;;;;;101.97;39.60;;;;;;;7.44;70.62;94780.31;4982481;28;20041;-79
2020/12/20 05:09:29;;;;;;;130.85;40.97;;;;;;;7.37;70.97;94783.97;4982456;28;20571;-79
2020/12/20 05:11:55;;;;;;;126.97;41.83;;;;;;;7.37;71.54;94786.59;4984643;28;20173;-80
2020/12/20 05:14:30;;;;;;;96.80;40.28;;;;;;;7.39;71.35;94781.88;4985775;28;20554;-80
2020/12/20 05:16:55;;;;;;;103.80;39.40;;;;;;;7.35;71.36;94791.28;4986514;28;20085;-79
2020/12/20 05:19:31;;;;;;;102.93;41.13;;;;;;;7.34;71.11;94781.78;4985962;28;20050;-80
2020/12/20 05:22:18;;;;;;;91.72;37.65;;;;;;;7.45;70.59;94787.19;4985940;28;20058;-80
2020/12/20 05:24:45;;;;;;;105.32;37.47;;;;;;;7.45;70.38;94793.25;4966667;28;20355;-80
2020/12/20 05:27:29;;;;;;;91.25;37.33;;;;;;;7.48;70.39;94797.22;4973377;28;20129;-80
2020/12/20 05:30:13;;;;;;;93.47;36.05;;;;;;;7.48;70.30;94792.75;4984416;28;20030;-80
2020/12/20 05:32:40;;;;;;;84.97;35.95;;;;;;;7.47;69.95;94800.91;4981413;28;20054;-80
2020/12/20 05:35:09;;;;;;;84.25;36.40;;;;;;;7.50;70.00;94800.41;4968775;28;20022;-80
2020/12/20 05:37:35;;;;;;;85.07;37.13;;;;;;;7.51;70.04;94797.53;4963259;28;20594;-79
2020/12/20 05:40:07;;;;;;;86.50;37.75;;;;;;;7.53;70.15;94805.16;4981458;28;20039;-79
2020/12/20 05:42:33;;;;;;;90.22;38.10;;;;;;;7.55;69.72;94797.84;4972126;28;20050;-80
2020/12/20 05:45:09;;;;;;;93.50;38.40;;;;;;;7.61;69.61;94804.75;4970714;28;20042;-80
2020/12/20 05:47:35;;;;;;;98.95;39.33;;;;;;;7.58;69.95;94807.84;4986365;28;20074;-80
2020/12/20 05:50:00;;;;;;;97.50;35.83;;;;;;;7.53;69.94;94803.31;4987449;28;20068;-80
2020/12/20 05:52:26;;;;;;;84.00;36.03;;;;;;;7.57;70.09;94809.72;4984308;28;20391;-80
2020/12/20 05:54:51;;;;;;;87.70;39.25;;;;;;;7.58;70.09;94816.53;4985225;28;20201;-80
2020/12/20 05:57:22;;;;;;;114.38;42.60;;;;;;;7.60;70.11;94821.56;4984878;28;20554;-79
2020/12/20 05:59:52;;;;;;;93.90;38.13;;;;;;;7.53;70.25;94807.78;4981851;28;20097;-80
2020/12/20 06:02:19;;;;;;;102.32;39.08;;;;;;;7.52;70.58;94814.13;4982631;28;20031;-80
2020/12/20 06:04:47;;;;;;;88.05;37.25;;;;;;;7.50;70.77;94826.69;4986045;28;20570;-80
2020/12/20 06:07:13;;;;;;;84.38;37.25;;;;;;;7.57;70.39;94827.31;4984906;28;20057;-79
2020/12/20 06:10:00;;;;;;;91.80;36.65;;;;;;;7.62;70.02;94822.13;4985584;28;20046;-80
2020/12/20 06:12:28;;;;;;;92.65;36.55;;;;;;;7.59;69.97;94827.88;4978078;28;20034;-79
2020/12/20 06:14:54;;;;;;;99.55;40.47;;;;;;;7.56;70.34;94833.63;4968893;28;20038;-80
2020/12/20 06:17:26;;;;;;;92.13;38.92;;;;;;;7.58;70.43;94832.31;4985769;28;20084;-80
2020/12/20 06:20:04;;;;;;;84.90;36.10;;;;;;;7.54;70.43;94823.34;4985593;28;20034;-80
2020/12/20 06:22:31;;;;;;;100.25;41.92;;;;;;;7.54;70.51;94827.81;4983160;28;20515;-80
2020/12/20 06:25:02;;;;;;;93.32;38.40;;;;;;;7.57;70.41;94832.59;4985859;28;20042;-80
2020/12/20 06:27:29;;;;;;;117.13;37.85;;;;;;;7.55;70.09;94830.19;4984760;28;20033;-80
2020/12/20 06:29:56;;;;;;;104.80;40.00;;;;;;;7.58;70.21;94831.53;4983003;28;20048;-79
2020/12/20 06:32:44;;;;;;;102.60;39.83;;;;;;;7.55;70.31;94830.19;4982556;28;20037;-80
2020/12/20 06:35:11;;;;;;;98.88;38.92;;;;;;;7.48;70.21;94834.06;4987969;28;20026;-79
2020/12/20 06:37:42;;;;;;;98.15;39.85;;;;;;;7.50;70.81;94837.22;4964876;28;20070;-80
2020/12/20 06:40:09;;;;;;;106.85;39.78;;;;;;;7.50;70.38;94837.22;4980925;28;20196;-80
2020/12/20 06:42:37;;;;;;;96.05;40.30;;;;;;;7.52;70.20;94835.16;4985558;28;20034;-80
2020/12/20 06:45:19;;;;;;;120.68;49.88;;;;;;;7.50;70.37;94848.53;4983236;28;20085;-80
2020/12/20 06:47:49;;;;;;;104.30;40.83;;;;;;;7.52;70.41;94843.03;4982120;28;20388;-79
2020/12/20 06:50:38;;;;;;;107.38;44.30;;;;;;;7.50;70.66;94851.16;4978075;28;20022;-80
2020/12/20 06:53:06;;;;;;;86.30;39.00;;;;;;;7.35;70.11;94820.22;4985848;28;20030;-80
2020/12/20 06:55:32;;;;;;;91.72;37.83;;;;;;;7.57;69.89;94841.28;4982390;28;20093;-80
2020/12/20 06:58:04;;;;;;;86.10;37.53;;;;;;;7.66;69.74;94846.91;4985407;28;20054;-80
2020/12/20 07:00:56;;;;;;;92.00;38.70;;;;;;;7.68;70.04;94850.06;4983586;28;20562;-80
2020/12/20 07:03:24;;;;;;;84.18;39.10;;;;;;;7.68;70.07;94848.22;4981635;28;20038;-80
2020/12/20 07:05:54;;;;;;;94.88;37.55;;;;;;;7.67;70.02;94845.88;4982511;28;20133;-80
2020/12/20 07:08:20;;;;;;;92.72;40.25;;;;;;;7.66;69.98;94852.97;4981015;28;20033;-80
2020/12/20 07:10:50;;;;;;;79.47;36.00;;;;;;;7.62;69.81;94851.06;4999636;28;20221;-80
2020/12/20 07:13:29;;;;;;;76.15;35.22;;;;;;;7.57;69.81;94843.09;4981603;28;20042;-80
2020/12/20 07:16:08;;;;;;;81.53;34.20;;;;;;;7.61;69.54;94854.72;4980001;28;20050;-80
2020/12/20 07:18:56;;;;;;;77.45;32.65;;;;;;;7.67;69.25;94859.03;4975847;28;20054;-80
2020/12/20 07:21:26;;;;;;;79.82;37.25;;;;;;;7.62;69.47;94861.59;4997340;28;20042;-80
2020/12/20 07:23:53;;;;;;;89.05;36.75;;;;;;;7.59;69.54;94851.53;4981753;28;20049;-80
2020/12/20 07:26:22;;;;;;;86.18;34.88;;;;;;;7.66;69.17;94841.66;4985798;28;20117;-80
2020/12/20 07:28:48;;;;;;;91.63;37.45;;;;;;;7.69;68.98;94851.66;4984910;28;20558;-80
2020/12/20 07:31:16;;;;;;;90.97;38.13;;;;;;;7.74;69.51;94855.16;4982596;28;20038;-80
2020/12/20 07:33:44;;;;;;;88.97;37.72;;;;;;;7.70;69.35;94848.81;4982987;28;20038;-80
2020/12/20 07:36:10;;;;;;;95.47;38.03;;;;;;;7.72;69.14;94851.97;4981674;28;20046;-80
2020/12/20 07:38:36;;;;;;;90.70;39.00;;;;;;;7.76;69.14;94852.28;4983322;28;20042;-80
2020/12/20 07:41:12;;;;;;;82.47;37.80;;;;;;;7.80;69.24;94854.19;4983291;28;20053;-80
2020/12/20 07:43:38;;;;;;;92.75;40.47;;;;;;;7.83;69.19;94858.16;4982101;28;20077;-80
2020/12/20 07:46:07;;;;;;;91.25;37.33;;;;;;;7.84;69.74;94860.53;4984058;28;20046;-80
2020/12/20 07:48:33;;;;;;;79.43;37.88;;;;;;;7.86;69.38;94862.94;4981345;28;20054;-80
2020/12/20 07:51:19;;;;;;;79.90;35.40;;;;;;;7.88;69.12;94863.47;4996760;28;20768;-80
2020/12/20 07:53:47;;;;;;;78.65;34.15;;;;;;;7.92;68.47;94864.56;4980421;28;20043;-80
2020/12/20 07:56:33;;;;;;;77.88;36.03;;;;;;;7.94;68.20;94856.44;4997833;28;20034;-80
2020/12/20 07:59:06;;;;;;;;;;;;;;;8.00;67.98;94853.63;4982716;28;20407;-80
2020/12/20 08:01:33;;;;;;;78.95;31.95;;;;;;;7.91;68.24;94856.94;4982012;28;19922;-79
2020/12/20 08:04:07;;;;;;;79.28;35.33;;;;;;;7.93;68.11;94853.00;4983871;28;20053;-79
2020/12/20 08:06:39;;;;;;;75.32;37.03;;;;;;;7.85;68.46;94840.28;4981091;28;20044;-80
2020/12/20 08:09:08;;;;;;;73.93;34.63;;;;;;;7.88;68.44;94855.59;4974504;28;20053;-80
2020/12/20 08:11:34;;;;;;;67.53;32.13;;;;;;;7.91;68.19;94852.47;4989192;28;20035;-80
2020/12/20 08:14:09;;;;;;;79.75;34.03;;;;;;;7.97;67.75;94854.09;4993557;28;20026;-80
2020/12/20 08:16:39;;;;;;;76.75;34.30;;;;;;;8.02;67.47;94856.00;4987586;28;20043;-80
2020/12/20 08:19:21;;;;;;;82.10;34.65;;;;;;;8.08;67.54;94860.28;4990305;28;20061;-79
2020/12/20 08:22:05;;;;;;;73.97;34.15;;;;;;;8.09;67.40;94865.31;5003935;28;20042;-80
2020/12/20 08:24:35;;;;;;;71.22;33.25;;;;;;;8.08;67.63;94860.28;4987873;28;20074;-79
2020/12/20 08:27:11;;;;;;;82.40;36.17;;;;;;;8.08;67.81;94865.53;4987217;28;20089;-79
2020/12/20 08:29:38;;;;;;;69.20;33.75;;;;;;;8.00;68.03;94861.53;4990277;28;20046;-80
2020/12/20 08:32:11;;;;;;;85.35;37.83;;;;;;;7.92;67.84;94859.31;4990534;28;20045;-80
2020/12/20 08:34:37;;;;;;;84.75;41.30;;;;;;;7.90;67.98;94853.50;4988464;28;20117;-80
2020/12/20 08:37:09;;;;;;;89.20;38.33;;;;;;;7.97;67.72;94866.47;4989215;28;20146;-80
2020/12/20 08:39:35;;;;;;;86.05;38.20;;;;;;;7.93;67.75;94855.63;4990055;28;20081;-80
2020/12/20 08:42:01;;;;;;;76.28;38.00;;;;;;;8.00;67.82;94863.34;4983237;28;21395;-80
2020/12/20 08:44:27;;;;;;;87.82;42.83;;;;;;;7.99;67.72;94849.41;4971427;28;20027;-80
2020/12/20 08:46:52;;;;;;;88.07;38.70;;;;;;;8.01;67.84;94846.53;4990566;28;20487;-80
2020/12/20 08:49:21;;;;;;;80.68;40.00;;;;;;;8.07;68.97;94854.22;4971471;28;20045;-80
2020/12/20 08:51:49;;;;;;;75.60;36.97;;;;;;;8.08;68.59;94855.81;4980542;28;20381;-80
2020/12/20 08:54:29;;;;;;;81.88;48.88;;;;;;;8.04;67.93;94846.81;4988588;28;20487;-80
2020/12/20 08:56:57;;;;;;;80.88;39.22;;;;;;;8.09;68.31;94849.50;4989365;28;20054;-80
2020/12/20 08:59:36;;;;;;;69.07;32.58;;;;;;;8.11;67.96;94857.94;4990888;28;20081;-80
2020/12/20 09:02:03;;;;;;;72.50;35.17;;;;;;;8.09;67.80;94857.41;4990107;28;20084;-80
2020/12/20 09:04:34;;;;;;;82.82;35.72;;;;;;;8.10;67.42;94840.56;4988454;28;20044;-79
2020/12/20 09:07:12;;;;;;;85.88;36.03;;;;;;;8.05;67.64;94853.69;5004612;28;20046;-79
2020/12/20 09:09:39;;;;;;;145.55;47.95;;;;;;;8.16;67.44;94858.00;4982846;28;20050;-79
2020/12/20 09:12:13;;;;;;;62.35;29.70;;;;;;;8.15;67.17;94851.16;4975100;28;20049;-79
2020/12/20 09:14:39;;;;;;;65.25;31.77;;;;;;;8.16;66.50;94852.72;4988854;28;20034;-79
2020/12/20 09:17:05;;;;;;;66.43;33.03;;;;;;;8.22;66.12;94840.41;4990440;28;20029;-79
2020/12/20 09:19:30;;;;;;;76.00;35.58;;;;;;;8.32;66.14;94850.28;4984521;28;20459;-79
2020/12/20 09:21:56;;;;;;;64.38;33.92;;;;;;;8.22;66.52;94850.94;4986004;28;20050;-79
2020/12/20 09:24:21;;;;;;;62.47;33.30;;;;;;;8.25;66.36;94845.22;4985668;28;20367;-79
2020/12/20 09:26:55;;;;;;;72.35;33.10;;;;;;;8.19;66.35;94841.72;4984749;28;20072;-79
2020/12/20 09:29:20;;;;;;;65.70;34.50;;;;;;;8.21;66.28;94833.56;4986720;28;20117;-79
2020/12/20 09:31:46;;;;;;;64.68;34.88;;;;;;;8.30;65.61;94842.66;5000593;28;20113;-79
2020/12/20 09:34:11;;;;;;;62.65;32.90;;;;;;;8.36;65.92;94844.28;5000256;28;20050;-79
2020/12/20 09:36:38;;;;;;;63.17;32.47;;;;;;;8.32;65.65;94847.66;4984450;28;20069;-79
2020/12/20 09:39:03;;;;;;;82.78;47.83;;;;;;;8.28;65.75;94823.63;4983524;28;20054;-79
2020/12/20 09:41:30;;;;;;;61.83;32.70;;;;;;;8.28;65.76;94834.97;4985471;28;20027;-79
2020/12/20 09:43:56;;;;;;;67.22;36.33;;;;;;;8.22;65.85;94838.59;4988861;28;20338;-79
2020/12/20 09:46:28;;;;;;;64.22;34.92;;;;;;;8.21;65.92;94839.63;4986032;28;20573;-79
2020/12/20 09:48:54;;;;;;;78.85;47.95;;;;;;;8.27;65.95;94833.38;4985894;28;20123;-79
2020/12/20 09:51:21;;;;;;;66.22;34.72;;;;;;;8.22;66.06;94835.94;4984292;28;20038;-79
2020/12/20 09:53:48;;;;;;;61.58;33.40;;;;;;;8.19;65.73;94833.81;4995202;28;20150;-79
2020/12/20 09:56:14;;;;;;;69.25;33.70;;;;;;;8.19;66.13;94839.09;4966392;28;20069;-79
2020/12/20 09:58:40;;;;;;;64.78;33.85;;;;;;;8.14;65.52;94832.97;4987896;28;20050;-79
2020/12/20 10:01:06;;;;;;;65.15;34.63;;;;;;;8.14;65.41;94841.66;4986132;28;20050;-79
2020/12/20 10:03:32;;;;;;;64.80;33.65;;;;;;;8.20;65.36;94832.78;4983177;28;20243;-79
2020/12/20 10:05:58;;;;;;;65.40;33.50;;;;;;;8.25;65.00;94824.13;4983406;28;20270;-79
2020/12/20 10:08:27;;;;;;;102.50;39.05;;;;;;;8.35;64.71;94821.63;4984064;28;20026;-79
2020/12/20 10:10:56;;;;;;;65.95;31.80;;;;;;;8.28;64.49;94813.09;4986917;28;20104;-79
2020/12/20 10:13:22;;;;;;;57.88;33.17;;;;;;;8.31;64.25;94825.00;4982973;28;20034;-79
2020/12/20 10:15:48;;;;;;;132.43;88.53;;;;;;;8.37;64.17;94816.09;4985450;28;20507;-79
2020/12/20 10:18:14;;;;;;;95.38;60.90;;;;;;;8.36;64.35;94796.06;4983334;28;20054;-79
2020/12/20 10:20:39;;;;;;;69.15;37.25;;;;;;;8.47;64.64;94816.19;4985100;28;20418;-79
2020/12/20 10:23:05;;;;;;;75.47;45.45;;;;;;;8.53;64.26;94813.38;4984481;28;20379;-79
2020/12/20 10:25:31;;;;;;;62.20;34.08;;;;;;;8.48;63.88;94809.88;4984481;28;23903;-78
2020/12/20 10:27:57;;;;;;;64.18;34.15;;;;;;;8.45;63.96;94808.56;4984954;28;20353;-79
2020/12/20 10:30:23;;;;;;;67.30;37.92;;;;;;;8.55;64.22;94802.59;4968614;28;20062;-79
2020/12/20 10:32:50;;;;;;;131.45;85.28;;;;;;;8.62;64.12;94809.22;4982190;28;20056;-79
2020/12/20 10:35:16;;;;;;;59.40;32.25;;;;;;;8.57;63.32;94806.53;4985874;28;20022;-78
2020/12/20 10:37:42;;;;;;;51.28;30.00;;;;;;;8.41;62.76;94804.00;4985458;28;20018;-78
2020/12/20 10:40:07;;;;;;;66.03;33.70;;;;;;;8.40;63.08;94800.63;4984671;28;20038;-79
2020/12/20 10:42:33;;;;;;;56.25;30.70;;;;;;;8.39;63.64;94799.00;4995923;28;20045;-78
2020/12/20 10:44:59;;;;;;;80.25;51.50;;;;;;;8.43;63.64;94802.72;4983252;28;20042;-79
2020/12/20 10:47:24;;;;;;;62.33;39.55;;;;;;;8.49;63.80;94808.84;4985306;28;20022;-79
2020/12/20 10:49:51;;;;;;;67.43;42.97;;;;;;;8.45;63.41;94797.22;4985863;28;20113;-78
2020/12/20 10:52:16;;;;;;;57.78;34.35;;;;;;;8.52;62.89;94808.34;4982258;28;20030;-78
2020/12/20 10:54:43;;;;;;;52.58;30.52;;;;;;;8.56;62.66;94799.69;4970658;28;20504;-79
2020/12/20 10:57:08;;;;;;;88.60;56.72;;;;;;;8.49;62.90;94793.03;4969466;28;20224;-79
2020/12/20 10:59:34;;;;;;;87.72;50.80;;;;;;;8.58;62.92;94796.81;4984472;28;20491;-79
2020/12/20 11:01:59;;;;;;;53.22;30.05;;;;;;;8.57;62.79;94803.91;4984944;28;20041;-78
2020/12/20 11:04:26;;;;;;;56.88;36.08;;;;;;;8.40;62.30;94789.28;4967648;28;20562;-78
2020/12/20 11:06:58;;;;;;;50.58;27.70;;;;;;;8.40;62.23;94794.53;4977962;28;20042;-78
2020/12/20 11:09:25;;;;;;;48.45;25.95;;;;;;;8.22;62.25;94799.09;4981336;28;20043;-78
2020/12/20 11:11:51;;;;;;;48.40;27.08;;;;;;;8.19;62.36;94791.69;4983359;28;20041;-78
2020/12/20 11:14:17;;;;;;;41.13;27.13;;;;;;;8.12;62.71;94777.91;4985055;28;20040;-78
2020/12/20 11:16:42;;;;;;;44.22;25.73;;;;;;;8.11;62.73;94789.50;4986014;28;20033;-78
2020/12/20 11:19:08;;;;;;;52.78;28.98;;;;;;;8.12;62.60;94798.97;4984356;28;20034;-78
2020/12/20 11:21:34;;;;;;;42.97;25.40;;;;;;;8.11;62.42;94792.13;4983392;28;20038;-78
2020/12/20 11:24:00;;;;;;;42.97;25.73;;;;;;;8.07;62.38;94785.78;4981059;28;20062;-79
2020/12/20 11:26:25;;;;;;;99.35;64.43;;;;;;;8.19;62.28;94783.00;4984452;28;20110;-78
2020/12/20 11:28:52;;;;;;;49.42;26.95;;;;;;;8.19;62.20;94794.31;4985573;28;20034;-79